Time;durP1;ratioP1;P1;durP2;ratioP2;P2;SDS_P1;SDS_P2;PMS_P1;PMS_P2;Temp;Humidity;BMP_temperature;BMP_pressure;BME280_temperature;BME280_humidity;BME280_pressure;Samples;Min_cycle;Max_cycle;Signal;HPM_P1;HPM_P2
2023/03/24 00:00:34;;;;;;;6.53;4.25;;;11.40;99.90;;;10.86;100.00;96641.59;5018178;28;20056;-73
2023/03/24 00:03:01;;;;;;;5.63;3.80;;;11.40;99.90;;;10.80;100.00;96634.97;5020192;28;20160;-73
2023/03/24 00:05:29;;;;;;;9.50;4.47;;;11.40;99.90;;;10.77;100.00;96622.19;5021552;28;20111;-74
2023/03/24 00:07:58;;;;;;;8.02;4.13;;;11.40;99.90;;;10.84;100.00;96614.88;5022663;28;20488;-73
2023/03/24 00:10:33;;;;;;;12.82;4.10;;;11.40;99.90;;;10.78;100.00;96613.47;5027253;28;20046;-74
2023/03/24 00:13:01;;;;;;;11.77;4.78;;;11.40;99.90;;;10.80;100.00;96609.03;5023414;28;20045;-75
2023/03/24 00:15:28;;;;;;;7.38;4.70;;;11.50;99.90;;;10.73;100.00;96612.09;5026673;28;20053;-76
2023/03/24 00:17:56;;;;;;;10.07;4.40;;;11.40;99.90;;;10.73;100.00;96606.88;5022565;28;20084;-74
2023/03/24 00:20:25;;;;;;;9.77;3.92;;;11.40;99.90;;;10.88;100.00;96606.00;5020199;28;20064;-74
2023/03/24 00:22:57;;;;;;;6.18;4.05;;;11.40;99.90;;;10.90;100.00;96596.31;5027672;28;20060;-74
2023/03/24 00:25:32;;;;;;;8.20;4.13;;;11.40;99.90;;;10.89;100.00;96594.66;5025537;28;20066;-74
2023/03/24 00:28:01;;;;;;;6.03;3.95;;;11.40;99.90;;;10.90;100.00;96593.72;5023923;28;20038;-74
2023/03/24 00:30:29;;;;;;;12.05;4.43;;;11.40;99.90;;;10.91;100.00;96592.00;5022731;28;20141;-74
2023/03/24 00:32:57;;;;;;;8.82;3.95;;;11.50;99.90;;;10.93;100.00;96595.34;5026536;28;20054;-74
2023/03/24 00:35:25;;;;;;;7.68;4.05;;;11.50;99.90;;;10.93;100.00;96595.34;5023649;28;20057;-73
2023/03/24 00:37:52;;;;;;;8.85;4.22;;;11.50;99.90;;;10.90;100.00;96604.13;5024812;28;20046;-73
2023/03/24 00:40:21;;;;;;;6.32;3.80;;;11.50;99.90;;;10.98;100.00;96601.09;5024247;28;20085;-73
2023/03/24 00:42:49;;;;;;;6.25;4.07;;;11.50;99.90;;;10.98;100.00;96603.69;5025816;28;20067;-74
2023/03/24 00:45:21;;;;;;;6.47;3.80;;;11.50;99.90;;;10.91;100.00;96597.19;5022213;28;20140;-74
2023/03/24 00:47:52;;;;;;;8.05;4.40;;;11.50;99.90;;;10.86;100.00;96589.66;5023993;28;20099;-74
2023/03/24 00:50:25;;;;;;;7.47;4.25;;;11.50;99.90;;;10.91;100.00;96590.22;5008138;28;20049;-73
2023/03/24 00:52:54;;;;;;;6.55;3.35;;;11.50;99.90;;;10.83;100.00;96580.31;5038320;28;20496;-74
2023/03/24 00:55:21;;;;;;;5.90;3.78;;;11.50;99.90;;;11.07;100.00;96583.19;5024189;28;20045;-74
2023/03/24 00:57:49;;;;;;;6.90;3.28;;;11.50;99.90;;;10.98;100.00;96585.50;5025118;28;20048;-75
2023/03/24 01:00:24;;;;;;;6.18;3.38;;;11.50;99.90;;;11.16;100.00;96580.97;5006736;28;20133;-75
2023/03/24 01:02:54;;;;;;;5.20;3.30;;;11.70;99.90;;;11.29;100.00;96580.13;5021369;28;20241;-74
2023/03/24 01:05:26;;;;;;;8.15;3.45;;;11.80;99.90;;;11.27;100.00;96558.59;5037506;28;20050;-75
2023/03/24 01:08:02;;;;;;;5.57;2.97;;;11.90;99.90;;;11.30;100.00;96562.75;5023297;28;20059;-74
2023/03/24 01:10:34;;;;;;;9.07;3.55;;;11.90;99.90;;;11.21;100.00;96564.16;5023780;28;20049;-75
2023/03/24 01:13:02;;;;;;;4.93;3.00;;;11.90;99.90;;;11.29;100.00;96559.34;5011156;28;20153;-74
2023/03/24 01:15:35;;;;;;;7.03;3.60;;;11.90;99.90;;;11.22;100.00;96546.78;5022825;28;20717;-77
2023/03/24 01:18:02;;;;;;;4.80;3.20;;;11.90;99.90;;;11.30;100.00;96553.19;5021951;28;20141;-73
2023/03/24 01:20:31;;;;;;;6.82;3.20;;;11.90;99.90;;;11.28;100.00;96554.22;5021619;28;20642;-76
2023/03/24 01:23:00;;;;;;;6.95;3.65;;;11.90;99.90;;;11.29;100.00;96554.13;5020381;28;20118;-76
2023/03/24 01:25:29;;;;;;;8.70;3.53;;;11.90;99.90;;;11.23;100.00;96541.53;5020823;28;20527;-75
2023/03/24 01:27:57;;;;;;;6.57;4.03;;;11.90;99.90;;;11.24;100.00;96539.75;5007723;28;20053;-75
2023/03/24 01:30:26;;;;;;;7.32;3.47;;;11.90;99.90;;;11.37;100.00;96540.66;5024847;28;20060;-74
2023/03/24 01:32:54;;;;;;;4.85;3.42;;;11.90;99.90;;;11.29;100.00;96535.94;5024148;28;20065;-75
2023/03/24 01:35:27;;;;;;;6.22;3.58;;;11.90;99.90;;;11.34;100.00;96538.25;5008786;28;20052;-76
2023/03/24 01:37:56;;;;;;;7.88;4.22;;;11.90;99.90;;;11.28;100.00;96529.06;5037695;28;20046;-75
2023/03/24 01:40:30;;;;;;;8.23;3.40;;;11.90;99.90;;;11.50;100.00;96532.94;5018782;28;20057;-73
2023/03/24 01:42:58;;;;;;;6.82;3.53;;;12.00;99.90;;;11.51;100.00;96521.59;5005964;28;20049;-75
2023/03/24 01:45:38;;;;;;;8.00;4.40;;;12.00;99.90;;;11.36;100.00;96518.22;4990051;28;20789;-73
2023/03/24 01:48:21;;;;;;;6.65;3.65;;;12.00;99.90;;;11.38;100.00;96499.91;5021052;28;20046;-73
2023/03/24 01:50:59;;;;;;;6.32;3.85;;;12.00;99.90;;;11.41;100.00;96497.97;5028183;28;20124;-75
2023/03/24 01:53:27;;;;;;;8.60;3.85;;;12.00;99.90;;;11.42;100.00;96485.81;5037422;28;20124;-75
2023/03/24 01:55:55;;;;;;;5.15;3.30;;;12.00;99.90;;;11.34;100.00;96477.69;5023422;28;20132;-76
2023/03/24 01:58:27;;;;;;;6.47;3.85;;;12.00;99.90;;;11.41;100.00;96482.38;5021827;28;20464;-75
2023/03/24 02:00:54;;;;;;;5.38;3.85;;;12.00;99.90;;;11.50;100.00;96480.97;5023122;28;20068;-76
2023/03/24 02:03:24;;;;;;;6.95;4.00;;;12.00;99.90;;;11.47;100.00;96479.41;5023713;28;20579;-76
2023/03/24 02:05:56;;;;;;;9.45;4.53;;;12.10;99.90;;;11.50;100.00;96471.41;5017852;28;20387;-75
2023/03/24 02:08:36;;;;;;;8.35;3.92;;;12.10;99.90;;;11.63;100.00;96479.25;5021525;28;20140;-76
2023/03/24 02:11:07;;;;;;;8.20;4.45;;;12.10;99.90;;;11.52;100.00;96477.34;5022087;28;20048;-76
2023/03/24 02:13:34;;;;;;;5.88;4.30;;;12.20;99.90;;;11.66;100.00;96499.84;5008965;28;20142;-76
2023/03/24 02:16:21;;;;;;;6.63;4.25;;;12.20;99.90;;;11.58;100.00;96493.47;5024658;28;20052;-76
2023/03/24 02:19:36;;;;;;;8.00;4.60;;;12.10;99.90;;;11.55;100.00;96493.66;5021256;28;20081;-75
2023/03/24 02:22:37;;;;;;;8.95;4.95;;;12.10;99.90;;;11.62;100.00;96487.97;5024701;28;20050;-76
2023/03/24 02:25:57;;;;;;;8.98;4.50;;;12.20;99.90;;;11.85;100.00;96488.25;5039947;28;20073;-75
2023/03/24 02:29:15;;;;;;;6.85;4.47;;;12.30;99.90;;;11.90;100.00;96494.00;5026372;28;20049;-75
2023/03/24 02:32:25;;;;;;;7.57;4.38;;;12.40;99.90;;;11.97;100.00;96477.06;5026447;28;20045;-76
2023/03/24 02:35:44;;;;;;;10.60;4.65;;;12.50;99.90;;;11.98;100.00;96470.94;5027949;28;20392;-75
2023/03/24 02:38:22;;;;;;;8.07;4.05;;;12.50;99.90;;;12.09;100.00;96475.47;5023781;28;20054;-75
2023/03/24 02:41:13;;;;;;;9.20;4.97;;;12.60;99.90;;;12.08;100.00;96487.59;5026791;28;20045;-76
2023/03/24 02:44:14;;;;;;;8.57;4.18;;;12.70;99.90;;;11.86;100.00;96482.97;5025449;28;20053;-75
2023/03/24 02:46:52;;;;;;;11.05;5.30;;;12.50;99.90;;;11.75;100.00;96477.63;5025078;28;20139;-75
2023/03/24 02:49:51;;;;;;;9.25;5.15;;;12.50;99.90;;;11.67;100.00;96490.28;5025421;28;20079;-75
2023/03/24 02:52:36;;;;;;;12.43;6.45;;;12.40;99.90;;;11.65;100.00;96510.34;5028913;28;20119;-75
2023/03/24 02:55:21;;;;;;;13.52;6.32;;;12.40;99.90;;;11.49;100.00;96507.88;5027213;28;20539;-75
2023/03/24 02:57:56;;;;;;;9.25;6.22;;;12.20;99.90;;;11.41;100.00;96492.78;5039551;28;20049;-75
2023/03/24 03:00:26;;;;;;;10.00;6.43;;;12.20;99.90;;;11.52;100.00;96544.09;5023873;28;20442;-75
2023/03/24 03:03:09;;;;;;;10.68;6.97;;;12.20;99.90;;;11.40;100.00;96527.47;5026515;28;20049;-74
2023/03/24 03:05:40;;;;;;;;;;;12.10;99.90;;;11.33;100.00;96527.97;5027393;28;20122;-74
2023/03/24 03:08:12;;;;;;;10.18;7.60;;;12.10;99.90;;;11.35;100.00;96559.88;5025143;28;19929;-74
2023/03/24 03:10:43;;;;;;;10.23;7.55;;;12.00;99.90;;;11.21;100.00;96545.16;5011717;28;20058;-73
2023/03/24 03:13:37;;;;;;;13.57;7.97;;;11.90;99.90;;;11.26;100.00;96566.47;5030481;28;20049;-75
2023/03/24 03:16:13;;;;;;;10.48;7.18;;;11.90;99.90;;;11.22;100.00;96568.44;5038996;28;20129;-74
2023/03/24 03:18:49;;;;;;;15.60;7.20;;;11.90;99.90;;;11.33;100.00;96575.53;5037886;28;20049;-74
2023/03/24 03:21:22;;;;;;;10.30;7.57;;;11.90;99.90;;;11.20;100.00;96588.47;5034251;28;20064;-75
2023/03/24 03:23:55;;;;;;;;;;;11.90;99.90;;;11.22;100.00;96577.97;5027896;28;20065;-74
2023/03/24 03:26:31;;;;;;;13.10;7.97;;;11.80;99.90;;;11.16;100.00;96574.00;5010635;28;20399;-74
2023/03/24 03:29:08;;;;;;;12.75;7.47;;;11.80;99.90;;;11.19;100.00;96604.97;5026567;28;20112;-74
2023/03/24 03:31:51;;;;;;;11.57;8.38;;;11.80;99.90;;;11.16;100.00;96592.19;5026613;28;20629;-74
2023/03/24 03:34:39;;;;;;;15.82;9.63;;;11.70;99.90;;;11.14;100.00;96607.03;5040967;28;20041;-74
2023/03/24 03:37:27;;;;;;;16.42;9.65;;;11.70;99.90;;;11.13;100.00;96618.34;5027344;28;20932;-74
2023/03/24 03:40:40;;;;;;;13.20;9.48;;;11.70;99.90;;;11.04;100.00;96603.31;5039820;28;20060;-73
2023/03/24 03:43:07;;;;;;;17.60;10.20;;;11.70;99.90;;;11.01;100.00;96653.66;5035597;28;20076;-73
2023/03/24 03:45:35;;;;;;;16.15;9.63;;;11.60;99.90;;;11.01;100.00;96621.66;5024032;28;20052;-73
2023/03/24 03:48:02;;;;;;;13.98;9.70;;;11.50;99.90;;;10.98;100.00;96624.44;5024479;28;20049;-73
2023/03/24 03:50:30;;;;;;;15.60;11.13;;;11.50;99.90;;;10.98;100.00;96624.44;5026284;28;20140;-72
2023/03/24 03:52:57;;;;;;;18.77;10.40;;;11.50;99.90;;;10.90;100.00;96632.66;5024612;28;20140;-73
2023/03/24 03:55:24;;;;;;;15.57;11.60;;;11.40;99.90;;;10.92;100.00;96632.59;5024794;28;20060;-72
2023/03/24 03:57:53;;;;;;;15.88;10.80;;;11.40;99.90;;;10.86;100.00;96618.22;5024744;28;20045;-73
2023/03/24 04:00:21;;;;;;;16.55;12.93;;;11.40;99.90;;;10.82;100.00;96638.31;5035960;28;20050;-73
2023/03/24 04:03:16;;;;;;;15.48;12.55;;;11.30;99.90;;;10.84;100.00;96625.25;5024504;28;20580;-73
2023/03/24 04:05:56;;;;;;;15.27;12.20;;;11.40;99.90;;;10.89;100.00;96656.97;5022858;28;20042;-72
2023/03/24 04:08:43;;;;;;;20.27;13.52;;;11.30;99.90;;;10.91;100.00;96659.50;5022192;28;20084;-73
2023/03/24 04:11:57;;;;;;;15.60;11.98;;;11.30;99.90;;;10.88;100.00;96658.75;5021838;28;20071;-72
2023/03/24 04:15:20;;;;;;;20.42;13.88;;;11.30;99.90;;;10.92;100.00;96654.19;5023870;28;20120;-72
2023/03/24 04:18:10;;;;;;;17.02;13.07;;;11.30;99.90;;;10.87;100.00;96653.63;5025377;28;20034;-73
2023/03/24 04:21:05;;;;;;;14.60;11.60;;;11.30;99.90;;;10.85;100.00;96669.28;5025927;28;20049;-72
2023/03/24 04:24:16;;;;;;;16.48;13.55;;;11.20;99.90;;;10.87;100.00;96662.25;5024618;28;20060;-73
2023/03/24 04:26:59;;;;;;;16.50;11.52;;;11.20;99.90;;;10.88;100.00;96647.53;5022823;28;20067;-73
2023/03/24 04:30:05;;;;;;;22.40;13.93;;;11.30;99.90;;;10.86;100.00;96658.00;5022927;28;20488;-72
2023/03/24 04:33:04;;;;;;;18.10;12.38;;;11.20;99.90;;;10.76;100.00;96654.25;5011696;28;20090;-73
2023/03/24 04:35:48;;;;;;;18.95;12.70;;;11.20;99.90;;;10.77;100.00;96642.13;5023230;28;20509;-73
2023/03/24 04:38:27;;;;;;;17.40;12.70;;;11.20;99.90;;;10.79;100.00;96640.28;5009492;28;20037;-73
2023/03/24 04:40:56;;;;;;;18.10;14.23;;;11.10;99.90;;;10.80;100.00;96650.56;5036751;28;20045;-72
2023/03/24 04:43:34;;;;;;;20.88;13.30;;;11.20;99.90;;;10.78;100.00;96630.81;5022985;28;20515;-73
2023/03/24 04:46:07;;;;;;;15.57;9.68;;;11.10;99.90;;;10.89;100.00;96639.63;5023715;28;20107;-73
2023/03/24 04:48:34;;;;;;;;;;;11.20;99.90;;;10.82;100.00;96620.16;5025723;28;20060;-72
2023/03/24 04:51:03;;;;;;;13.98;9.88;;;11.20;99.90;;;10.83;100.00;96620.97;5042024;28;20384;-73
2023/03/24 04:53:30;;;;;;;13.82;10.20;;;11.20;99.90;;;10.81;100.00;96610.72;5034435;28;20408;-74
2023/03/24 04:56:18;;;;;;;15.05;11.40;;;11.20;99.90;;;10.70;100.00;96600.13;5026476;28;20121;-74
2023/03/24 04:58:45;;;;;;;15.77;10.85;;;11.20;99.90;;;10.72;100.00;96597.41;5019925;28;20523;-72
2023/03/24 05:01:13;;;;;;;15.10;10.13;;;11.20;99.90;;;10.79;100.00;96602.19;5041032;28;20057;-74
2023/03/24 05:03:41;;;;;;;13.82;11.30;;;11.20;99.90;;;10.78;100.00;96607.44;5024900;28;20145;-74
2023/03/24 05:06:09;;;;;;;13.93;10.48;;;11.20;99.90;;;10.76;100.00;96581.56;5036383;28;20084;-74
2023/03/24 05:08:37;;;;;;;12.00;9.52;;;11.20;99.90;;;10.73;100.00;96579.16;5021902;28;20053;-74
2023/03/24 05:11:05;;;;;;;14.07;8.52;;;11.20;99.90;;;10.84;100.00;96597.53;5023370;28;20045;-73
2023/03/24 05:13:32;;;;;;;13.82;10.02;;;11.20;99.90;;;10.77;100.00;96595.41;5021219;28;20132;-73
2023/03/24 05:15:59;;;;;;;14.10;10.70;;;11.20;99.90;;;10.77;100.00;96591.03;5023660;28;20042;-74
2023/03/24 05:18:26;;;;;;;13.73;11.02;;;11.20;99.90;;;10.71;100.00;96581.00;5021196;28;20057;-73
2023/03/24 05:20:53;;;;;;;13.00;10.88;;;11.20;99.90;;;10.74;100.00;96585.19;5023795;28;20192;-74
2023/03/24 05:23:20;;;;;;;16.02;11.32;;;11.10;99.90;;;10.71;100.00;96586.22;5025470;28;20046;-73
2023/03/24 05:25:47;;;;;;;15.27;11.27;;;11.10;99.90;;;10.68;100.00;96581.22;5036220;28;20423;-73
2023/03/24 05:28:15;;;;;;;16.42;12.85;;;11.10;99.90;;;10.68;100.00;96587.22;5020126;28;20048;-73
2023/03/24 05:30:42;;;;;;;16.63;12.30;;;11.10;99.90;;;10.65;100.00;96591.75;5025156;28;20255;-73
2023/03/24 05:33:09;;;;;;;21.13;13.93;;;11.10;99.90;;;10.64;100.00;96583.13;5021105;28;20045;-73
2023/03/24 05:35:36;;;;;;;13.90;10.45;;;11.10;99.90;;;10.70;100.00;96612.25;5036865;28;20046;-72
2023/03/24 05:38:04;;;;;;;15.02;10.10;;;11.10;99.90;;;10.76;100.00;96606.69;5021815;28;20041;-73
2023/03/24 05:40:31;;;;;;;14.82;12.10;;;11.10;99.90;;;10.69;100.00;96601.03;5020341;28;20053;-73
2023/03/24 05:42:58;;;;;;;15.68;10.30;;;11.10;99.90;;;10.76;100.00;96571.19;5022825;28;20617;-73
2023/03/24 05:45:25;;;;;;;15.90;10.85;;;11.20;99.90;;;10.74;100.00;96609.41;5024457;28;20084;-73
2023/03/24 05:47:53;;;;;;;14.23;9.73;;;11.20;99.90;;;10.79;100.00;96604.78;5007535;28;20053;-73
2023/03/24 05:50:20;;;;;;;13.68;9.73;;;11.10;99.90;;;10.79;100.00;96607.38;5021871;28;20467;-73
2023/03/24 05:52:47;;;;;;;14.32;10.50;;;11.10;99.90;;;10.82;100.00;96603.75;5027018;28;20503;-73
2023/03/24 05:55:14;;;;;;;16.80;12.23;;;11.20;99.90;;;10.72;100.00;96600.00;5022757;28;20049;-73
2023/03/24 05:57:42;;;;;;;17.75;11.32;;;11.10;99.90;;;10.67;100.00;96580.38;5017507;28;20049;-73
2023/03/24 06:00:15;;;;;;;18.20;13.20;;;11.20;99.90;;;10.72;100.00;96605.19;5022504;28;20132;-73
2023/03/24 06:02:44;;;;;;;16.83;11.35;;;11.20;99.90;;;10.80;100.00;96606.44;5034323;28;20045;-74
2023/03/24 06:05:12;;;;;;;15.45;11.60;;;11.20;99.90;;;10.80;100.00;96596.03;5033657;28;20084;-73
2023/03/24 06:07:41;;;;;;;14.40;10.95;;;11.20;99.90;;;10.90;100.00;96614.50;5021395;28;20053;-73
2023/03/24 06:10:10;;;;;;;14.18;10.15;;;11.20;99.90;;;10.83;100.00;96593.28;5039740;28;20042;-73
2023/03/24 06:12:37;;;;;;;14.70;9.95;;;11.30;99.90;;;10.85;100.00;96609.56;5036149;28;20053;-73
2023/03/24 06:15:06;;;;;;;14.98;10.63;;;11.20;99.90;;;10.73;100.00;96597.34;5024675;28;20463;-73
2023/03/24 06:17:33;;;;;;;15.07;11.20;;;11.30;99.90;;;10.75;100.00;96590.28;5032015;28;20049;-73
2023/03/24 06:20:03;;;;;;;12.27;9.48;;;11.20;99.90;;;10.77;100.00;96598.84;5023030;28;20112;-73
2023/03/24 06:22:32;;;;;;;12.15;8.98;;;11.20;99.90;;;10.77;100.00;96593.63;5020883;28;20080;-73
2023/03/24 06:25:01;;;;;;;11.75;8.50;;;11.20;99.90;;;10.81;100.00;96604.66;5021579;28;20579;-73
2023/03/24 06:27:28;;;;;;;11.60;8.52;;;11.20;99.90;;;10.84;100.00;96615.72;5019873;28;20547;-73
2023/03/24 06:29:58;;;;;;;12.32;8.77;;;11.20;99.90;;;10.76;100.00;96593.72;5022185;28;20423;-74
2023/03/24 06:32:26;;;;;;;15.43;8.80;;;11.30;99.90;;;10.69;100.00;96601.03;5026935;28;20111;-73
2023/03/24 06:34:53;;;;;;;12.07;8.48;;;11.20;99.90;;;10.72;100.00;96594.81;5019416;28;20128;-74
2023/03/24 06:37:21;;;;;;;11.77;9.50;;;11.20;99.90;;;10.71;100.00;96606.97;5023763;28;20045;-73
2023/03/24 06:39:49;;;;;;;12.02;8.85;;;11.20;99.90;;;10.74;100.00;96592.97;5021019;28;20046;-74
2023/03/24 06:42:17;;;;;;;11.50;7.60;;;11.20;99.90;;;10.74;100.00;96606.81;5017975;28;20041;-73
2023/03/24 06:44:45;;;;;;;10.63;8.25;;;11.20;99.90;;;10.74;100.00;96606.81;5019103;28;20136;-74
2023/03/24 06:47:12;;;;;;;12.48;9.77;;;11.10;99.90;;;10.74;100.00;96608.53;5022384;28;20127;-74
2023/03/24 06:49:40;;;;;;;15.63;10.23;;;11.20;99.90;;;10.74;100.00;96604.22;5006352;28;20049;-73
2023/03/24 06:52:07;;;;;;;13.27;9.02;;;11.20;99.90;;;10.81;100.00;96608.13;5020199;28;20060;-74
2023/03/24 06:54:38;;;;;;;15.70;10.10;;;11.30;99.90;;;10.74;100.00;96600.75;5020212;28;20049;-73
2023/03/24 06:57:07;;;;;;;13.90;10.40;;;11.20;99.90;;;10.68;100.00;96614.94;5018372;28;20145;-74
2023/03/24 06:59:34;;;;;;;12.32;9.73;;;11.20;99.90;;;10.65;100.00;96597.78;5018790;28;20125;-73
2023/03/24 07:02:02;;;;;;;11.13;8.90;;;11.20;99.90;;;10.68;100.00;96597.59;5019002;28;20048;-73
2023/03/24 07:04:35;;;;;;;14.23;10.45;;;11.10;99.90;;;10.70;100.00;96587.16;5021413;28;20057;-74
2023/03/24 07:07:02;;;;;;;13.73;10.25;;;11.10;99.90;;;10.65;100.00;96610.78;5025282;28;20515;-73
2023/03/24 07:09:50;;;;;;;12.55;9.27;;;11.10;99.90;;;10.66;100.00;96617.63;5006461;28;20041;-74
2023/03/24 07:12:17;;;;;;;14.02;9.23;;;11.10;99.90;;;10.67;100.00;96587.31;5019456;28;20057;-74
2023/03/24 07:14:44;;;;;;;12.45;9.65;;;11.20;99.90;;;10.67;100.00;96619.31;5021064;28;20619;-74
2023/03/24 07:17:11;;;;;;;11.85;9.55;;;11.20;99.90;;;10.63;100.00;96607.44;5024314;28;20420;-74
2023/03/24 07:19:38;;;;;;;13.52;10.05;;;11.10;99.90;;;10.66;100.00;96593.44;5025532;28;20068;-73
2023/03/24 07:22:07;;;;;;;10.27;7.65;;;11.20;99.90;;;10.69;100.00;96603.63;5006203;28;20503;-74
2023/03/24 07:24:34;;;;;;;14.82;9.43;;;11.20;99.90;;;10.67;100.00;96621.91;5025512;28;20057;-74
2023/03/24 07:27:02;;;;;;;10.00;8.77;;;11.20;99.90;;;10.68;100.00;96618.38;5040872;28;20050;-73
2023/03/24 07:29:29;;;;;;;13.23;7.82;;;11.20;99.90;;;10.76;100.00;96635.25;5040797;28;20054;-74
2023/03/24 07:31:59;;;;;;;11.43;8.85;;;11.20;99.90;;;10.78;100.00;96642.03;5043100;28;20546;-74
2023/03/24 07:34:27;;;;;;;12.07;8.18;;;11.20;99.90;;;10.73;100.00;96631.06;5028332;28;20053;-74
2023/03/24 07:36:55;;;;;;;10.45;7.90;;;11.20;99.90;;;10.70;100.00;96633.88;5028457;28;20129;-74
2023/03/24 07:39:25;;;;;;;12.82;8.50;;;11.20;99.90;;;10.75;100.00;96623.22;5023504;28;20056;-74
2023/03/24 07:41:54;;;;;;;11.98;7.60;;;11.20;99.90;;;10.76;100.00;96637.84;5025380;28;20071;-74
2023/03/24 07:44:22;;;;;;;10.98;7.38;;;11.30;99.90;;;10.77;100.00;96653.34;5021347;28;20368;-74
2023/03/24 07:46:49;;;;;;;8.90;6.85;;;11.20;99.90;;;10.81;100.00;96664.38;5019838;28;20049;-74
2023/03/24 07:49:16;;;;;;;11.63;7.70;;;11.10;99.90;;;10.64;100.00;96652.38;5037443;28;20145;-74
2023/03/24 07:51:49;;;;;;;12.73;8.30;;;11.10;99.90;;;10.62;100.00;96646.44;5024722;28;20142;-74
2023/03/24 07:54:16;;;;;;;11.30;8.20;;;11.10;99.90;;;10.64;100.00;96636.81;5036942;28;20041;-74
2023/03/24 07:56:43;;;;;;;10.50;7.00;;;11.10;99.90;;;10.66;100.00;96643.56;5022430;28;20419;-74
2023/03/24 07:59:10;;;;;;;12.27;7.43;;;11.10;99.90;;;10.66;100.00;96650.53;5021578;28;20072;-73
2023/03/24 08:01:37;;;;;;;8.55;6.38;;;11.10;99.90;;;10.64;100.00;96636.81;5017456;28;20049;-74
2023/03/24 08:04:05;;;;;;;12.52;7.30;;;11.10;99.90;;;10.68;100.00;96665.09;5035470;28;20075;-75
2023/03/24 08:06:33;;;;;;;6.95;5.93;;;11.10;99.90;;;10.72;100.00;96667.50;5026336;28;20084;-74
2023/03/24 08:09:00;;;;;;;9.73;6.47;;;11.10;99.90;;;10.70;100.00;96659.81;5035708;28;20093;-74
2023/03/24 08:11:27;;;;;;;8.43;6.20;;;11.10;99.90;;;10.70;100.00;96653.75;5023653;28;20314;-73
2023/03/24 08:13:54;;;;;;;10.23;7.90;;;11.10;99.90;;;10.58;100.00;96650.13;5023001;28;20046;-74
2023/03/24 08:16:21;;;;;;;10.13;6.32;;;11.10;99.90;;;10.55;100.00;96665.88;5023743;28;20067;-73
2023/03/24 08:18:49;;;;;;;11.45;5.82;;;11.00;99.90;;;10.57;100.00;96649.28;5024568;28;20045;-73
2023/03/24 08:21:16;;;;;;;7.82;5.30;;;11.00;99.90;;;10.54;100.00;96644.28;5024402;28;20463;-72
2023/03/24 08:23:43;;;;;;;12.02;6.70;;;11.00;99.90;;;10.56;100.00;96654.56;5019657;28;20133;-72
2023/03/24 08:26:14;;;;;;;10.20;6.57;;;11.00;99.90;;;10.59;100.00;96665.63;5019266;28;20133;-72
2023/03/24 08:28:41;;;;;;;8.93;6.85;;;11.00;99.90;;;10.66;100.00;96642.75;5023379;28;20054;-73
2023/03/24 08:31:08;;;;;;;8.48;6.38;;;11.10;99.90;;;10.66;100.00;96668.69;5023376;28;20042;-73
2023/03/24 08:33:36;;;;;;;12.52;5.75;;;11.00;99.90;;;10.76;100.00;96659.44;5020467;28;20045;-73
2023/03/24 08:36:03;;;;;;;8.00;5.40;;;11.10;99.90;;;10.92;100.00;96666.34;5022314;28;20044;-73
2023/03/24 08:38:31;;;;;;;7.47;5.25;;;11.20;99.90;;;11.10;100.00;96665.25;5021795;28;20099;-74
2023/03/24 08:41:01;;;;;;;7.35;4.63;;;11.30;99.90;;;11.03;100.00;96648.38;5020628;28;20054;-73
2023/03/24 08:43:30;;;;;;;9.10;5.03;;;11.30;99.90;;;11.00;100.00;96661.56;5025696;28;20104;-74
2023/03/24 08:45:59;;;;;;;6.88;4.93;;;11.40;99.90;;;10.98;100.00;96642.63;5018216;28;20534;-75
2023/03/24 08:48:28;;;;;;;5.22;3.92;;;11.40;99.90;;;11.06;100.00;96643.84;5019254;28;20153;-74
2023/03/24 08:50:56;;;;;;;9.90;5.35;;;11.40;99.90;;;11.05;100.00;96647.34;5021386;28;20045;-73
2023/03/24 08:53:23;;;;;;;11.88;5.40;;;11.40;99.90;;;11.06;100.00;96648.19;5024065;28;20053;-74
2023/03/24 08:55:51;;;;;;;6.05;4.45;;;11.40;99.90;;;11.00;100.00;96671.94;5020473;28;20057;-74
2023/03/24 08:58:21;;;;;;;6.15;4.22;;;11.40;99.90;;;10.98;100.00;96668.59;5020488;28;20041;-74
2023/03/24 09:00:49;;;;;;;4.50;3.60;;;11.40;99.90;;;10.85;100.00;96671.88;5038324;28;20057;-73
2023/03/24 09:03:21;;;;;;;6.45;3.30;;;11.30;99.90;;;10.81;100.00;96675.59;5018691;28;20734;-73
2023/03/24 09:05:55;;;;;;;12.27;3.88;;;11.20;99.90;;;10.87;100.00;96684.78;5022987;28;20176;-73
2023/03/24 09:08:25;;;;;;;6.13;3.95;;;11.10;99.90;;;10.93;100.00;96696.59;5022006;28;20127;-73
2023/03/24 09:10:52;;;;;;;7.55;4.53;;;11.10;99.90;;;10.79;100.00;96666.25;5021356;28;20045;-73
2023/03/24 09:13:20;;;;;;;8.65;4.35;;;11.20;99.90;;;10.85;100.00;96687.47;5039503;28;20499;-73
2023/03/24 09:15:51;;;;;;;7.18;4.07;;;11.20;99.90;;;10.71;100.00;96676.22;5021515;28;20041;-73
2023/03/24 09:18:20;;;;;;;8.15;4.90;;;11.20;99.90;;;10.74;100.00;96676.88;5024736;28;20045;-73
2023/03/24 09:20:48;;;;;;;6.45;3.65;;;11.10;99.90;;;10.72;100.00;96686.53;5019279;28;20108;-73
2023/03/24 09:23:20;;;;;;;9.07;4.22;;;11.00;99.90;;;10.66;100.00;96681.66;5054056;28;20057;-73
2023/03/24 09:25:52;;;;;;;6.07;4.20;;;11.10;99.90;;;10.66;100.00;96710.22;5023557;28;20044;-73
2023/03/24 09:28:20;;;;;;;8.65;4.70;;;11.10;99.90;;;10.65;100.00;96714.59;5022624;28;20054;-73
2023/03/24 09:30:48;;;;;;;5.45;3.78;;;11.00;99.90;;;10.64;100.00;96699.09;5017273;28;20132;-73
2023/03/24 09:33:16;;;;;;;4.15;3.22;;;11.10;99.90;;;10.58;100.00;96700.28;5023947;28;20045;-73
2023/03/24 09:35:43;;;;;;;4.93;3.47;;;11.00;99.90;;;10.62;100.00;96706.94;5020442;28;20128;-73
2023/03/24 09:38:11;;;;;;;5.00;3.60;;;11.00;99.90;;;10.59;100.00;96683.78;5015949;28;20097;-73
2023/03/24 09:40:39;;;;;;;6.72;3.50;;;11.10;99.90;;;10.57;100.00;96708.16;5018237;28;20080;-73
2023/03/24 09:43:42;;;;;;;6.60;3.78;;;11.00;99.90;;;10.68;100.00;96698.00;5019475;28;20140;-72
2023/03/24 09:46:16;;;;;;;6.53;4.15;;;11.00;99.90;;;10.81;100.00;96708.50;5005456;28;20046;-73
2023/03/24 09:48:52;;;;;;;6.10;4.35;;;11.10;99.90;;;10.75;100.00;96709.69;5031426;28;20053;-74
2023/03/24 09:51:27;;;;;;;5.10;3.10;;;11.20;99.90;;;10.78;100.00;96695.69;5020402;28;20057;-73
2023/03/24 09:54:23;;;;;;;3.78;2.75;;;11.20;99.90;;;10.86;100.00;96714.28;5021350;28;20416;-73
2023/03/24 09:56:51;;;;;;;6.00;3.42;;;11.20;99.90;;;10.75;100.00;96740.00;5014583;28;20046;-73
2023/03/24 09:59:39;;;;;;;7.72;3.05;;;11.20;99.90;;;10.77;100.00;96764.13;5019627;28;20136;-73
2023/03/24 10:02:15;;;;;;;5.03;2.60;;;11.00;99.90;;;10.73;100.00;96766.03;5018692;28;20053;-71
2023/03/24 10:04:43;;;;;;;4.22;2.17;;;11.00;99.90;;;10.82;100.00;96768.13;5013054;28;20056;-72
2023/03/24 10:07:47;;;;;;;4.40;2.03;;;11.00;99.90;;;11.08;100.00;96747.63;5016918;28;20436;-72
2023/03/24 10:10:36;;;;;;;2.42;1.08;;;11.00;99.90;;;11.10;100.00;96751.78;5021880;28;20128;-72
2023/03/24 10:13:20;;;;;;;2.53;1.30;;;11.10;99.90;;;11.06;100.00;96749.47;5028985;28;20041;-72
2023/03/24 10:16:14;;;;;;;1.83;0.88;;;11.10;99.90;;;10.98;100.00;96765.50;5015993;28;20056;-71
2023/03/24 10:19:24;;;;;;;2.85;1.10;;;11.00;99.90;;;10.89;100.00;96761.66;5017306;28;20053;-73
2023/03/24 10:22:05;;;;;;;2.75;1.10;;;11.00;99.90;;;10.87;100.00;96773.06;5010863;28;20411;-73
2023/03/24 10:24:43;;;;;;;3.40;0.82;;;11.00;99.90;;;10.79;100.00;96785.66;5019715;28;20140;-73
2023/03/24 10:27:37;;;;;;;3.95;1.30;;;11.00;99.90;;;10.79;100.00;96776.09;5033317;28;20041;-74
2023/03/24 10:30:19;;;;;;;4.10;1.10;;;11.00;99.90;;;10.62;100.00;96776.19;5015121;28;20158;-72
2023/03/24 10:32:46;;;;;;;3.40;1.20;;;10.90;99.90;;;10.53;100.00;96774.09;5019764;28;20170;-74
2023/03/24 10:35:26;;;;;;;2.75;1.13;;;10.80;99.90;;;10.60;100.00;96788.41;5020104;28;20049;-73